createdAt,value
2022-08-07T00:02:39.614Z,54.90
2022-08-07T00:05:01.311Z,54.74
2022-08-07T00:07:39.236Z,54.53
2022-08-07T00:10:26.034Z,54.33
2022-08-07T00:12:59.747Z,54.29
2022-08-07T00:15:38.360Z,53.88
2022-08-07T00:18:24.351Z,54.04
2022-08-07T00:21:56.288Z,54.01
2022-08-07T00:23:58.747Z,53.54
2022-08-07T00:26:31.408Z,53.49
2022-08-07T00:29:14.245Z,53.35
2022-08-07T00:31:43.250Z,53.10
2022-08-07T00:34:11.311Z,52.96
2022-08-07T00:36:42.930Z,52.75
2022-08-07T00:39:12.886Z,52.73
2022-08-07T00:42:02.427Z,52.80
2022-08-07T00:44:35.116Z,52.58
2022-08-07T00:47:16.005Z,52.63
2022-08-07T00:50:20.850Z,52.44
2022-08-07T00:52:41.750Z,52.03
2022-08-07T00:55:17.469Z,52.22
2022-08-07T00:57:55.702Z,51.98
2022-08-07T01:00:23.686Z,52.05
2022-08-07T01:02:52.063Z,51.84
2022-08-07T01:07:38.177Z,51.43
2022-08-07T01:10:10.884Z,51.64
2022-08-07T01:12:54.042Z,51.49
2022-08-07T01:16:00.581Z,51.65
2022-08-07T01:18:17.698Z,51.83
2022-08-07T01:20:57.363Z,51.89
2022-08-07T01:23:36.353Z,52.02
2022-08-07T01:26:13.492Z,52.14
2022-08-07T01:28:48.424Z,52.23
2022-08-07T01:31:21.137Z,52.43
2022-08-07T01:33:56.310Z,52.58
2022-08-07T01:36:33.485Z,52.84
2022-08-07T01:39:10.104Z,52.83
2022-08-07T01:42:07.899Z,52.94
2022-08-07T01:44:30.650Z,52.95
2022-08-07T01:47:01.228Z,53.18
2022-08-07T01:49:43.691Z,53.20
2022-08-07T01:52:12.587Z,53.27
2022-08-07T01:54:43.114Z,53.29
2022-08-07T01:57:24.615Z,53.64
2022-08-07T02:00:13.884Z,53.69
2022-08-07T02:03:19.301Z,53.88
2022-08-07T02:05:47.943Z,54.06
2022-08-07T02:08:25.717Z,54.26
2022-08-07T02:10:57.976Z,54.23
2022-08-07T02:13:56.786Z,54.35
2022-08-07T02:16:19.921Z,54.40
2022-08-07T02:18:56.497Z,54.46
2022-08-07T02:21:25.077Z,54.46
2022-08-07T02:23:53.259Z,54.37
2022-08-07T02:26:34.360Z,54.11
2022-08-07T02:29:04.145Z,54.14
2022-08-07T02:31:32.727Z,54.32
2022-08-07T02:34:04.169Z,54.29
2022-08-07T02:36:42.186Z,54.39
2022-08-07T02:39:17.361Z,54.63
2022-08-07T02:42:03.211Z,54.81
2022-08-07T02:44:43.370Z,54.97
2022-08-07T02:47:19.776Z,55.19
2022-08-07T02:49:55.948Z,55.30
2022-08-07T02:53:03.256Z,55.42
2022-08-07T02:56:02.227Z,55.30
2022-08-07T02:58:21.854Z,55.08
2022-08-07T03:00:51.842Z,54.72
2022-08-07T03:03:22.604Z,54.53
2022-08-07T03:05:54.268Z,54.20
2022-08-07T03:08:27.040Z,53.98
2022-08-07T03:10:59.219Z,53.80
2022-08-07T03:13:38.712Z,53.51
2022-08-07T03:16:08.576Z,53.48
2022-08-07T03:18:38.488Z,53.46
2022-08-07T03:21:08.224Z,53.33
2022-08-07T03:24:20.998Z,53.21
2022-08-07T03:26:25.375Z,53.11
2022-08-07T03:28:54.943Z,53.00
2022-08-07T03:31:23.700Z,52.89
2022-08-07T03:34:00.980Z,53.09
2022-08-07T03:36:30.381Z,53.01
2022-08-07T03:39:05.478Z,52.95
2022-08-07T03:41:42.135Z,52.87
2022-08-07T03:44:15.633Z,52.84
2022-08-07T03:47:11.081Z,52.62
2022-08-07T03:49:36.868Z,52.62
2022-08-07T03:52:04.734Z,52.49
2022-08-07T03:54:35.624Z,52.39
2022-08-07T03:58:34.296Z,52.21
2022-08-07T04:00:10.590Z,52.08
2022-08-07T04:02:47.285Z,52.16
2022-08-07T04:05:28.629Z,52.18
2022-08-07T04:08:07.407Z,51.90
2022-08-07T04:10:42.361Z,52.02
2022-08-07T04:13:15.179Z,52.13
2022-08-07T04:15:43.455Z,51.86
2022-08-07T04:18:56.975Z,51.86
2022-08-07T04:21:02.098Z,51.93
2022-08-07T04:23:43.763Z,51.83
2022-08-07T04:26:21.883Z,51.82
2022-08-07T04:28:49.842Z,51.95
2022-08-07T04:31:20.262Z,52.17
2022-08-07T04:34:16.644Z,52.16
2022-08-07T04:36:49.473Z,52.03
2022-08-07T04:39:19.275Z,51.94
2022-08-07T04:41:54.042Z,52.21
2022-08-07T04:44:21.489Z,52.08
2022-08-07T04:47:08.698Z,52.09
2022-08-07T04:49:57.379Z,51.91
2022-08-07T04:52:51.253Z,51.73
2022-08-07T04:58:12.485Z,51.16
2022-08-07T04:58:47.537Z,50.77
2022-08-07T05:01:39.863Z,50.51
2022-08-07T05:04:18.090Z,50.47
2022-08-07T05:06:51.518Z,50.30
2022-08-07T05:09:45.973Z,49.93
2022-08-07T05:12:26.775Z,49.28
2022-08-07T05:15:21.652Z,49.08
2022-08-07T05:18:01.576Z,48.76
2022-08-07T05:20:40.169Z,48.44
2022-08-07T05:23:15.851Z,47.99
2022-08-07T05:26:10.549Z,48.00
2022-08-07T05:28:34.837Z,47.36
2022-08-07T05:31:02.153Z,47.09
2022-08-07T05:33:35.616Z,46.80
2022-08-07T05:36:05.785Z,46.59
2022-08-07T05:39:00.263Z,46.43
2022-08-07T05:41:22.145Z,46.41
2022-08-07T05:44:12.410Z,46.10
2022-08-07T05:46:43.703Z,45.97
2022-08-07T05:49:13.103Z,45.46
2022-08-07T05:51:46.429Z,45.43
2022-08-07T05:54:30.822Z,45.37
2022-08-07T05:56:59.888Z,45.21
2022-08-07T05:59:27.984Z,44.85
2022-08-07T06:02:00.282Z,44.86
2022-08-07T06:04:30.161Z,44.63
2022-08-07T06:07:03.403Z,44.60
2022-08-07T06:10:03.762Z,44.55
2022-08-07T06:12:20.892Z,44.64
2022-08-07T06:14:49.860Z,44.75
2022-08-07T06:17:19.663Z,44.39
2022-08-07T06:20:03.797Z,43.49
2022-08-07T06:22:38.943Z,43.97
2022-08-07T06:25:28.043Z,44.20
2022-08-07T06:28:04.599Z,43.66
2022-08-07T06:30:37.353Z,44.09
2022-08-07T06:33:16.097Z,43.63
2022-08-07T06:35:47.676Z,43.54
2022-08-07T06:38:32.846Z,42.43
2022-08-07T06:41:04.270Z,42.00
2022-08-07T06:43:40.039Z,42.06
2022-08-07T06:46:12.647Z,42.12
2022-08-07T06:48:41.992Z,41.73
2022-08-07T06:51:24.551Z,42.19
2022-08-07T06:55:34.051Z,42.34
2022-08-07T06:56:51.623Z,42.12
2022-08-07T07:00:13.187Z,42.21
2022-08-07T07:02:48.106Z,42.18
2022-08-07T07:05:08.775Z,41.80
2022-08-07T07:07:59.771Z,42.15
2022-08-07T07:10:33.539Z,41.97
2022-08-07T07:13:15.198Z,41.90
2022-08-07T07:15:51.720Z,42.15
2022-08-07T07:18:46.838Z,42.31
2022-08-07T07:21:27.213Z,41.97
2022-08-07T07:24:12.687Z,41.15
2022-08-07T07:26:40.506Z,41.18
2022-08-07T07:29:56.835Z,41.47
2022-08-07T07:32:02.716Z,40.88
2022-08-07T07:34:31.917Z,41.21
2022-08-07T07:37:14.389Z,41.37
2022-08-07T07:39:54.835Z,41.04
2022-08-07T07:42:32.521Z,41.05
2022-08-07T07:45:04.953Z,40.75
2022-08-07T07:47:51.731Z,40.32
2022-08-07T07:50:34.011Z,40.27
2022-08-07T07:53:23.273Z,39.67
2022-08-07T07:57:07.260Z,39.05
2022-08-07T07:59:51.520Z,37.99
2022-08-07T08:02:35.316Z,37.19
2022-08-07T08:05:14.259Z,37.03
2022-08-07T08:07:59.657Z,37.11
2022-08-07T08:10:35.655Z,36.57
2022-08-07T08:13:10.577Z,36.54
2022-08-07T08:15:58.086Z,36.90
2022-08-07T08:18:52.266Z,36.35
2022-08-07T08:21:56.942Z,34.95
2022-08-07T08:25:04.509Z,33.62
2022-08-07T08:28:01.896Z,33.24
2022-08-07T08:30:42.494Z,33.17
2022-08-07T08:33:17.922Z,33.43
2022-08-07T08:36:18.955Z,33.30
2022-08-07T08:39:06.499Z,32.30
2022-08-07T08:41:58.519Z,32.26
2022-08-07T08:44:45.667Z,32.08
2022-08-07T08:47:54.888Z,32.39
2022-08-07T08:50:28.359Z,32.65
2022-08-07T08:53:30.557Z,32.94
2022-08-07T08:56:12.239Z,33.00
2022-08-07T08:59:02.331Z,32.94
2022-08-07T09:01:43.989Z,32.66
2022-08-07T09:04:28.773Z,32.58
2022-08-07T09:07:46.608Z,32.49
2022-08-07T09:10:27.984Z,32.73
2022-08-07T09:13:09.752Z,33.01
2022-08-07T09:16:21.700Z,32.56
2022-08-07T09:18:58.460Z,32.66
2022-08-07T09:21:33.831Z,32.73
2022-08-07T09:24:53.999Z,32.72
2022-08-07T09:27:54.735Z,32.58
2022-08-07T09:30:27.924Z,32.93
2022-08-07T09:33:05.342Z,32.94
2022-08-07T09:36:04.741Z,33.10
2022-08-07T09:38:50.270Z,33.12
2022-08-07T09:41:58.690Z,33.26
2022-08-07T09:47:50.042Z,33.98
2022-08-07T09:48:12.079Z,34.35
2022-08-07T09:51:25.899Z,33.74
2022-08-07T09:54:00.609Z,33.68
2022-08-07T09:56:58.900Z,34.20
2022-08-07T09:59:35.833Z,34.57
2022-08-07T10:02:35.470Z,34.56
2022-08-07T10:05:58.288Z,34.59
2022-08-07T10:08:23.497Z,33.66
2022-08-07T10:11:16.830Z,33.71
2022-08-07T10:14:02.468Z,33.35
2022-08-07T10:16:48.781Z,32.52
2022-08-07T10:20:03.098Z,32.54
2022-08-07T10:23:14.731Z,31.98
2022-08-07T10:27:01.968Z,31.97
2022-08-07T10:30:44.760Z,31.64
2022-08-07T10:34:05.532Z,31.67
2022-08-07T10:37:12.751Z,31.98
2022-08-07T10:43:08.309Z,32.62
2022-08-07T10:45:58.190Z,31.90
2022-08-07T10:48:39.666Z,32.47
2022-08-07T10:52:02.071Z,32.58
2022-08-07T10:54:29.506Z,31.86
2022-08-07T10:57:18.479Z,32.31
2022-08-07T11:00:36.157Z,32.92
2022-08-07T11:03:10.901Z,32.37
2022-08-07T11:06:33.409Z,30.31
2022-08-07T11:09:11.795Z,30.05
2022-08-07T11:12:11.792Z,30.02
2022-08-07T11:14:59.830Z,29.52
2022-08-07T11:17:54.167Z,28.34
2022-08-07T11:20:42.908Z,28.09
2022-08-07T11:23:38.618Z,28.32
2022-08-07T11:26:29.209Z,28.15
2022-08-07T11:29:40.866Z,28.18
2022-08-07T11:32:36.243Z,28.39
2022-08-07T11:35:10.462Z,27.01
2022-08-07T11:37:58.232Z,26.95
2022-08-07T11:40:59.157Z,26.79
2022-08-07T11:43:54.449Z,26.95
2022-08-07T11:46:41.140Z,26.78
2022-08-07T11:50:18.499Z,26.28
2022-08-07T11:52:55.443Z,26.69
2022-08-07T11:56:09.114Z,27.33
2022-08-07T11:58:50.262Z,26.18
2022-08-07T12:02:00.013Z,26.05
2022-08-07T12:05:01.055Z,25.98
2022-08-07T12:07:44.100Z,25.98
2022-08-07T12:10:48.540Z,26.16
2022-08-07T12:13:53.162Z,26.15
2022-08-07T12:16:30.662Z,26.26
2022-08-07T12:19:02.129Z,26.45
2022-08-07T12:22:39.046Z,26.42
2022-08-07T12:26:03.391Z,26.04
2022-08-07T12:28:45.581Z,26.14
2022-08-07T12:31:52.408Z,26.14
2022-08-07T12:34:23.038Z,26.27
2022-08-07T12:36:53.908Z,26.68
2022-08-07T12:39:44.843Z,26.68
2022-08-07T12:42:08.331Z,27.10
2022-08-07T12:44:36.131Z,27.24
2022-08-07T12:47:11.575Z,27.62
2022-08-07T12:50:06.550Z,27.83
2022-08-07T12:53:05.176Z,27.31
2022-08-07T12:56:02.857Z,27.09
2022-08-07T12:58:39.301Z,26.66
2022-08-07T13:01:16.627Z,26.41
2022-08-07T13:04:02.408Z,26.95
2022-08-07T13:06:54.517Z,26.71
2022-08-07T13:10:28.852Z,26.55
2022-08-07T13:12:33.467Z,26.57
2022-08-07T13:15:34.598Z,26.29
2022-08-07T13:18:25.811Z,26.30
2022-08-07T13:21:37.715Z,26.48
2022-08-07T13:25:54.192Z,25.89
2022-08-07T13:28:38.452Z,26.47
2022-08-07T13:31:13.043Z,26.47
2022-08-07T13:34:32.937Z,26.09
2022-08-07T13:37:10.800Z,25.93
2022-08-07T13:40:35.759Z,25.76
2022-08-07T13:42:54.955Z,25.16
2022-08-07T13:46:11.683Z,25.59
2022-08-07T13:48:27.511Z,25.98
2022-08-07T13:51:00.279Z,26.07
2022-08-07T13:54:00.598Z,25.92
2022-08-07T13:56:36.135Z,25.20
2022-08-07T13:59:12.355Z,25.29
2022-08-07T14:01:59.419Z,25.70
2022-08-07T14:04:36.174Z,25.41
2022-08-07T14:07:09.432Z,25.40
2022-08-07T14:10:12.128Z,24.83
2022-08-07T14:12:54.102Z,24.93
2022-08-07T14:15:35.100Z,25.12
2022-08-07T14:18:28.873Z,25.31
2022-08-07T14:22:01.088Z,25.08
2022-08-07T14:24:33.413Z,24.96
2022-08-07T14:28:09.662Z,24.99
2022-08-07T14:30:07.112Z,25.07
2022-08-07T14:33:05.752Z,24.89
2022-08-07T14:35:45.249Z,24.47
2022-08-07T14:38:26.368Z,24.48
2022-08-07T14:41:12.116Z,24.37
2022-08-07T14:43:56.983Z,24.45
2022-08-07T14:46:30.533Z,24.78
2022-08-07T14:49:56.086Z,25.11
2022-08-07T14:54:35.924Z,24.68
2022-08-07T14:57:24.896Z,25.17
2022-08-07T15:00:05.128Z,24.80
2022-08-07T15:02:36.847Z,24.37
2022-08-07T15:05:04.865Z,24.60
2022-08-07T15:07:52.144Z,24.79
2022-08-07T15:10:26.786Z,25.04
2022-08-07T15:13:20.439Z,24.94
2022-08-07T15:15:52.797Z,24.59
2022-08-07T15:21:58.759Z,25.06
2022-08-07T15:27:04.743Z,23.85
2022-08-07T15:32:39.953Z,24.47
2022-08-07T15:35:14.871Z,25.33
2022-08-07T15:38:18.174Z,25.42
2022-08-07T15:40:34.518Z,25.29
2022-08-07T15:43:53.373Z,25.54
2022-08-07T15:46:03.517Z,25.29
2022-08-07T15:48:37.500Z,25.48
2022-08-07T15:54:12.358Z,27.09
2022-08-07T15:56:41.838Z,26.97
2022-08-07T15:59:16.503Z,26.82
2022-08-07T16:02:02.423Z,26.52
2022-08-07T16:04:32.075Z,26.53
2022-08-07T16:07:05.172Z,27.28
2022-08-07T16:09:54.644Z,27.88
2022-08-07T16:13:01.042Z,27.96
2022-08-07T16:15:55.004Z,28.49
2022-08-07T16:18:50.782Z,28.80
2022-08-07T16:22:02.347Z,28.95
2022-08-07T16:24:35.562Z,28.71
2022-08-07T16:27:26.685Z,28.85
2022-08-07T16:30:30.743Z,28.72
2022-08-07T16:34:03.354Z,29.06
2022-08-07T16:36:03.261Z,30.70
2022-08-07T16:39:01.344Z,30.77
2022-08-07T16:41:57.291Z,30.94
2022-08-07T16:44:55.413Z,31.04
2022-08-07T16:47:51.216Z,31.69
2022-08-07T16:50:36.938Z,32.35
2022-08-07T16:54:01.213Z,32.53
2022-08-07T16:56:14.804Z,32.52
2022-08-07T16:59:10.973Z,32.66
2022-08-07T17:01:49.928Z,32.82
2022-08-07T17:04:24.290Z,33.03
2022-08-07T17:07:03.473Z,33.35
2022-08-07T17:10:05.231Z,33.33
2022-08-07T17:12:44.729Z,33.23
2022-08-07T17:15:20.277Z,33.40
2022-08-07T17:17:47.914Z,33.56
2022-08-07T17:20:37.472Z,33.48
2022-08-07T17:23:32.395Z,33.62
2022-08-07T17:26:30.597Z,33.81
2022-08-07T17:28:58.613Z,33.72
2022-08-07T17:31:44.362Z,33.80
2022-08-07T17:34:36.702Z,33.78
2022-08-07T17:38:06.260Z,33.92
2022-08-07T17:40:36.556Z,34.02
2022-08-07T17:43:18.129Z,34.01
2022-08-07T17:45:56.764Z,33.53
2022-08-07T17:48:31.098Z,33.08
2022-08-07T17:51:08.448Z,33.67
2022-08-07T17:54:00.095Z,33.85
2022-08-07T17:56:31.827Z,33.50
2022-08-07T17:59:08.973Z,33.82
2022-08-07T18:01:58.537Z,34.00
2022-08-07T18:04:48.880Z,34.11
2022-08-07T18:07:24.139Z,34.48
2022-08-07T18:10:06.197Z,34.60
2022-08-07T18:12:58.571Z,34.84
2022-08-07T18:15:32.843Z,35.01
2022-08-07T18:18:45.243Z,35.41
2022-08-07T18:21:28.743Z,35.17
2022-08-07T18:24:00.972Z,34.98
2022-08-07T18:26:48.189Z,34.83
2022-08-07T18:30:07.342Z,34.77
2022-08-07T18:32:22.295Z,35.17
2022-08-07T18:35:08.176Z,35.24
2022-08-07T18:38:55.880Z,35.51
2022-08-07T18:40:50.284Z,35.67
2022-08-07T18:43:57.769Z,35.49
2022-08-07T18:46:43.122Z,35.26
2022-08-07T18:50:32.459Z,35.19
2022-08-07T18:52:55.008Z,35.17
2022-08-07T18:55:42.843Z,35.36
2022-08-07T18:58:53.562Z,35.69
2022-08-07T19:02:33.926Z,35.72
2022-08-07T19:04:19.706Z,35.57
2022-08-07T19:07:01.452Z,35.93
2022-08-07T19:09:57.454Z,36.01
2022-08-07T19:12:48.713Z,35.54
2022-08-07T19:16:05.330Z,35.15
2022-08-07T19:18:34.465Z,35.56
2022-08-07T19:21:44.113Z,34.64
2022-08-07T19:24:43.141Z,34.09
2022-08-07T19:29:02.950Z,33.84
2022-08-07T19:31:03.258Z,34.66
2022-08-07T19:32:51.845Z,34.28
2022-08-07T19:35:33.021Z,34.12
2022-08-07T19:38:03.753Z,33.60
2022-08-07T19:40:50.347Z,33.98
2022-08-07T19:43:44.104Z,33.04
2022-08-07T19:46:35.781Z,33.08
2022-08-07T19:49:05.766Z,33.34
2022-08-07T19:51:51.872Z,32.80
2022-08-07T19:54:33.902Z,33.60
2022-08-07T19:58:01.098Z,33.23
2022-08-07T20:00:08.979Z,32.72
2022-08-07T20:02:41.298Z,33.15
2022-08-07T20:05:27.802Z,32.87
2022-08-07T20:08:07.191Z,33.00
2022-08-07T20:10:55.091Z,33.12
2022-08-07T20:13:27.055Z,33.25
2022-08-07T20:15:59.964Z,33.52
2022-08-07T20:18:32.217Z,33.58
2022-08-07T20:21:02.555Z,33.53
2022-08-07T20:23:40.698Z,33.62
2022-08-07T20:26:10.065Z,33.64
2022-08-07T20:28:39.191Z,33.44
2022-08-07T20:31:21.360Z,33.39
2022-08-07T20:33:56.323Z,33.27
2022-08-07T20:36:24.104Z,33.30
2022-08-07T20:39:00.850Z,33.32
2022-08-07T20:41:45.863Z,33.57
2022-08-07T20:44:15.450Z,33.41
2022-08-07T20:46:45.496Z,33.62
2022-08-07T20:49:58.480Z,33.44
2022-08-07T20:52:16.381Z,33.34
2022-08-07T20:54:53.316Z,33.48
2022-08-07T20:57:25.801Z,33.50
2022-08-07T21:00:06.869Z,33.59
2022-08-07T21:02:58.736Z,33.64
2022-08-07T21:05:57.238Z,34.04
2022-08-07T21:08:36.701Z,34.14
2022-08-07T21:11:17.218Z,34.25
2022-08-07T21:14:32.024Z,34.28
2022-08-07T21:17:06.399Z,34.46
2022-08-07T21:19:50.710Z,34.84
2022-08-07T21:22:28.303Z,34.70
2022-08-07T21:25:04.477Z,34.75
2022-08-07T21:27:55.850Z,34.80
2022-08-07T21:30:52.047Z,34.58
2022-08-07T21:33:38.341Z,34.76
2022-08-07T21:36:32.738Z,34.69
2022-08-07T21:39:45.779Z,34.83
2022-08-07T21:42:49.328Z,35.01
2022-08-07T21:46:05.123Z,35.34
2022-08-07T21:48:28.514Z,35.74
2022-08-07T21:51:07.710Z,35.95
2022-08-07T21:53:52.824Z,36.34
2022-08-07T21:56:47.957Z,36.37
2022-08-07T22:00:05.099Z,36.52
2022-08-07T22:02:34.827Z,36.75
2022-08-07T22:05:03.186Z,36.95
2022-08-07T22:07:58.356Z,37.06
2022-08-07T22:10:24.528Z,37.14
2022-08-07T22:13:00.027Z,36.98
2022-08-07T22:16:38.482Z,37.17
2022-08-07T22:19:01.214Z,37.39
2022-08-07T22:22:02.042Z,37.59
2022-08-07T22:24:32.653Z,37.61
2022-08-07T22:28:02.979Z,37.73
2022-08-07T22:30:19.890Z,37.69
2022-08-07T22:32:47.584Z,37.87
2022-08-07T22:35:18.063Z,38.23
2022-08-07T22:38:08.129Z,38.22
2022-08-07T22:41:29.108Z,38.31
2022-08-07T22:44:13.002Z,38.76
2022-08-07T22:47:08.697Z,38.67
2022-08-07T22:50:20.517Z,38.43
2022-08-07T22:52:59.242Z,38.69
2022-08-07T22:55:51.430Z,38.95
2022-08-07T22:58:18.742Z,39.31
2022-08-07T23:01:06.321Z,39.47
2022-08-07T23:04:10.095Z,39.90
2022-08-07T23:07:40.326Z,40.20
2022-08-07T23:10:38.451Z,40.45
2022-08-07T23:13:48.427Z,40.57
2022-08-07T23:16:55.829Z,40.69
2022-08-07T23:20:03.856Z,40.71
2022-08-07T23:22:40.437Z,40.77
2022-08-07T23:25:30.307Z,40.77
2022-08-07T23:28:22.046Z,40.84
2022-08-07T23:31:18.582Z,41.21
2022-08-07T23:34:38.296Z,41.41
2022-08-07T23:37:18.627Z,41.50
2022-08-07T23:40:27.939Z,41.73
2022-08-07T23:43:16.485Z,41.80
2022-08-07T23:46:10.923Z,41.77
2022-08-07T23:48:41.260Z,41.72
2022-08-07T23:52:59.824Z,41.86
2022-08-07T23:54:36.477Z,41.91
2022-08-07T23:57:22.320Z,41.66
